createdAt,value
2022-11-21T00:00:05.655Z,6.52
2022-11-21T00:01:22.138Z,6.57
2022-11-21T00:02:24.451Z,6.79
2022-11-21T00:03:26.996Z,6.78
2022-11-21T00:04:29.511Z,6.85
2022-11-21T00:05:32.910Z,6.72
2022-11-21T00:06:35.084Z,6.71
2022-11-21T00:07:37.381Z,6.59
2022-11-21T00:08:39.677Z,6.50
2022-11-21T00:09:41.879Z,6.44
2022-11-21T00:10:44.878Z,6.49
2022-11-21T00:11:47.254Z,6.46
2022-11-21T00:12:55.044Z,6.68
2022-11-21T00:13:58.089Z,6.59
2022-11-21T00:15:00.297Z,6.51
2022-11-21T00:16:07.485Z,6.51
2022-11-21T00:17:10.160Z,6.46
2022-11-21T00:18:12.862Z,6.46
2022-11-21T00:19:15.029Z,6.49
2022-11-21T00:20:18.701Z,6.58
2022-11-21T00:21:21.177Z,6.51
2022-11-21T00:22:23.458Z,6.49
2022-11-21T00:23:28.237Z,6.55
2022-11-21T00:24:30.404Z,6.76
2022-11-21T00:25:32.614Z,6.70
2022-11-21T00:26:34.885Z,6.58
2022-11-21T00:27:37.211Z,6.63
2022-11-21T00:28:39.585Z,6.60
2022-11-21T00:29:41.790Z,6.80
2022-11-21T00:30:44.092Z,6.47
2022-11-21T00:31:46.280Z,6.65
2022-11-21T00:32:48.510Z,6.64
2022-11-21T00:33:50.821Z,6.83
2022-11-21T00:34:53.001Z,6.86
2022-11-21T00:35:55.218Z,6.80
2022-11-21T00:36:57.407Z,6.64
2022-11-21T00:37:59.665Z,6.71
2022-11-21T00:39:01.852Z,6.71
2022-11-21T00:40:04.904Z,6.69
2022-11-21T00:41:07.113Z,6.75
2022-11-21T00:42:09.348Z,6.84
2022-11-21T00:43:11.702Z,6.75
2022-11-21T00:44:13.943Z,6.64
2022-11-21T00:45:21.150Z,6.69
2022-11-21T00:46:26.207Z,6.61
2022-11-21T00:47:28.430Z,6.64
2022-11-21T00:48:32.179Z,6.78
2022-11-21T00:49:34.501Z,6.74
2022-11-21T00:50:36.765Z,6.79
2022-11-21T00:51:38.974Z,6.81
2022-11-21T00:52:41.178Z,6.82
2022-11-21T00:53:43.478Z,6.71
2022-11-21T00:54:45.741Z,6.81
2022-11-21T00:55:47.987Z,6.74
2022-11-21T00:56:50.539Z,6.90
2022-11-21T00:57:52.705Z,6.81
2022-11-21T00:58:54.895Z,6.77
2022-11-21T00:59:57.086Z,6.79
2022-11-21T01:01:04.878Z,6.71
2022-11-21T01:02:07.246Z,6.65
2022-11-21T01:03:09.545Z,6.68
2022-11-21T01:04:12.000Z,6.67
2022-11-21T01:05:14.451Z,6.66
2022-11-21T01:06:16.662Z,6.81
2022-11-21T01:07:18.961Z,7.08
2022-11-21T01:08:21.482Z,7.08
2022-11-21T01:09:24.148Z,7.04
2022-11-21T01:10:26.392Z,6.83
2022-11-21T01:11:29.467Z,7.02
2022-11-21T01:12:31.634Z,6.96
2022-11-21T01:13:34.518Z,6.82
2022-11-21T01:14:36.753Z,7.07
2022-11-21T01:15:38.948Z,7.23
2022-11-21T01:16:41.271Z,7.27
2022-11-21T01:17:43.494Z,6.82
2022-11-21T01:18:46.726Z,6.76
2022-11-21T01:19:48.886Z,6.62
2022-11-21T01:20:51.286Z,6.63
2022-11-21T01:21:53.489Z,6.75
2022-11-21T01:22:55.735Z,6.57
2022-11-21T01:24:02.739Z,6.64
2022-11-21T01:25:05.470Z,6.85
2022-11-21T01:26:11.443Z,6.78
2022-11-21T01:27:13.653Z,6.73
2022-11-21T01:28:15.926Z,6.88
2022-11-21T01:29:18.540Z,6.66
2022-11-21T01:30:20.820Z,6.63
2022-11-21T01:31:25.260Z,6.42
2022-11-21T01:32:27.476Z,6.48
2022-11-21T01:33:29.717Z,6.59
2022-11-21T01:34:31.890Z,6.62
2022-11-21T01:35:34.065Z,6.33
2022-11-21T01:36:36.260Z,6.32
2022-11-21T01:37:38.459Z,6.29
2022-11-21T01:38:42.686Z,6.30
2022-11-21T01:39:44.907Z,6.24
2022-11-21T01:40:47.071Z,6.50
2022-11-21T01:41:49.306Z,6.53
2022-11-21T01:43:02.443Z,6.25
2022-11-21T01:44:26.298Z,6.23
2022-11-21T01:45:47.656Z,6.29
2022-11-21T01:46:51.634Z,6.54
2022-11-21T01:47:53.829Z,6.34
2022-11-21T01:49:10.273Z,6.15
2022-11-21T01:50:13.197Z,6.13
2022-11-21T01:51:24.910Z,6.24
2022-11-21T01:52:30.938Z,6.39
2022-11-21T01:53:34.933Z,6.17
2022-11-21T01:54:45.823Z,6.14
2022-11-21T01:55:49.177Z,5.97
2022-11-21T01:57:01.513Z,6.09
2022-11-21T01:58:03.789Z,6.07
2022-11-21T01:59:08.438Z,6.22
2022-11-21T02:01:39.739Z,5.83
2022-11-21T02:02:51.453Z,5.94
2022-11-21T02:03:56.793Z,5.89
2022-11-21T02:05:00.311Z,5.90
2022-11-21T02:06:02.687Z,6.02
2022-11-21T02:07:06.961Z,6.11
2022-11-21T02:08:19.748Z,6.11
2022-11-21T02:09:23.255Z,6.08
2022-11-21T02:10:25.868Z,6.07
2022-11-21T02:11:36.357Z,6.11
2022-11-21T02:12:56.049Z,6.16
2022-11-21T02:13:59.571Z,6.06
2022-11-21T02:15:02.168Z,6.13
2022-11-21T02:16:04.723Z,6.38
2022-11-21T02:17:09.211Z,6.23
2022-11-21T02:18:11.513Z,6.30
2022-11-21T02:19:24.749Z,6.30
2022-11-21T02:20:29.018Z,6.30
2022-11-21T02:21:56.576Z,6.34
2022-11-21T02:23:15.876Z,6.26
2022-11-21T02:24:34.243Z,6.24
2022-11-21T02:25:39.342Z,6.41
2022-11-21T02:26:42.332Z,6.19
2022-11-21T02:27:46.184Z,6.26
2022-11-21T02:28:48.464Z,6.26
2022-11-21T02:29:50.811Z,6.27
2022-11-21T02:30:53.022Z,6.34
2022-11-21T02:31:55.275Z,6.34
2022-11-21T02:32:58.063Z,6.41
2022-11-21T02:34:00.273Z,6.36
2022-11-21T02:35:02.707Z,6.36
2022-11-21T02:36:25.551Z,6.37
2022-11-21T02:37:28.739Z,6.24
2022-11-21T02:38:35.077Z,6.35
2022-11-21T02:39:37.795Z,6.32
2022-11-21T02:40:43.910Z,6.15
2022-11-21T02:41:57.670Z,6.23
2022-11-21T02:43:16.439Z,6.25
2022-11-21T02:44:24.388Z,6.43
2022-11-21T02:45:35.614Z,6.51
2022-11-21T02:46:47.429Z,6.25
2022-11-21T02:47:53.634Z,6.22
2022-11-21T02:48:57.303Z,6.22
2022-11-21T02:50:14.660Z,6.24
2022-11-21T02:51:16.879Z,6.31
2022-11-21T02:52:19.164Z,6.44
2022-11-21T02:53:21.345Z,6.42
2022-11-21T02:54:23.668Z,6.40
2022-11-21T02:55:26.361Z,6.37
2022-11-21T02:56:28.599Z,6.32
2022-11-21T02:57:31.001Z,6.46
2022-11-21T02:58:33.265Z,6.37
2022-11-21T02:59:35.487Z,6.35
2022-11-21T03:00:39.770Z,6.46
2022-11-21T03:01:42.224Z,6.44
2022-11-21T03:02:44.451Z,6.52
2022-11-21T03:03:46.638Z,6.69
2022-11-21T03:04:48.961Z,6.50
2022-11-21T03:05:51.330Z,6.46
2022-11-21T03:06:53.524Z,6.64
2022-11-21T03:07:55.754Z,6.57
2022-11-21T03:08:58.175Z,6.60
2022-11-21T03:10:00.453Z,6.73
2022-11-21T03:11:02.732Z,6.58
2022-11-21T03:12:09.471Z,6.64
2022-11-21T03:13:11.690Z,6.67
2022-11-21T03:14:13.978Z,6.64
2022-11-21T03:15:16.694Z,6.58
2022-11-21T03:16:18.966Z,6.71
2022-11-21T03:17:21.263Z,6.53
2022-11-21T03:18:23.534Z,6.54
2022-11-21T03:19:25.796Z,6.46
2022-11-21T03:20:28.717Z,6.74
2022-11-21T03:21:31.054Z,6.66
2022-11-21T03:22:33.656Z,6.62
2022-11-21T03:23:35.969Z,6.59
2022-11-21T03:24:38.209Z,6.65
2022-11-21T03:25:40.472Z,6.56
2022-11-21T03:26:42.812Z,6.62
2022-11-21T03:27:45.108Z,6.76
2022-11-21T03:28:47.264Z,6.58
2022-11-21T03:29:49.636Z,6.54
2022-11-21T03:30:51.849Z,6.46
2022-11-21T03:31:54.060Z,6.60
2022-11-21T03:32:57.161Z,6.62
2022-11-21T03:33:59.433Z,6.71
2022-11-21T03:35:01.665Z,6.75
2022-11-21T03:36:04.357Z,6.92
2022-11-21T03:37:06.777Z,6.85
2022-11-21T03:38:09.068Z,6.69
2022-11-21T03:39:11.284Z,6.63
2022-11-21T03:40:13.926Z,6.71
2022-11-21T03:41:31.286Z,6.70
2022-11-21T03:42:33.506Z,6.74
2022-11-21T03:43:35.818Z,6.75
2022-11-21T03:44:38.085Z,6.72
2022-11-21T03:45:40.276Z,6.77
2022-11-21T03:46:44.812Z,6.82
2022-11-21T03:47:47.304Z,6.75
2022-11-21T03:48:50.064Z,6.74
2022-11-21T03:49:52.265Z,6.73
2022-11-21T03:50:54.492Z,6.80
2022-11-21T03:51:56.785Z,6.81
2022-11-21T03:52:58.969Z,6.86
2022-11-21T03:54:01.351Z,6.79
2022-11-21T03:55:04.567Z,6.76
2022-11-21T03:56:06.803Z,6.67
2022-11-21T03:57:09.001Z,6.84
2022-11-21T03:58:11.219Z,6.82
2022-11-21T03:59:13.438Z,6.89
2022-11-21T04:00:16.566Z,6.86
2022-11-21T04:01:19.356Z,6.86
2022-11-21T04:02:21.757Z,6.88
2022-11-21T04:03:24.014Z,6.73
2022-11-21T04:04:26.692Z,6.74
2022-11-21T04:05:29.405Z,6.72
2022-11-21T04:06:31.813Z,6.94
2022-11-21T04:07:34.068Z,6.97
2022-11-21T04:08:36.372Z,6.94
2022-11-21T04:09:38.577Z,6.99
2022-11-21T04:10:48.117Z,6.84
2022-11-21T04:11:50.595Z,6.97
2022-11-21T04:12:52.807Z,7.11
2022-11-21T04:13:55.165Z,6.98
2022-11-21T04:14:57.489Z,7.15
2022-11-21T04:15:59.874Z,7.16
2022-11-21T04:17:02.359Z,7.18
2022-11-21T04:18:04.542Z,7.34
2022-11-21T04:19:06.754Z,7.31
2022-11-21T04:20:09.746Z,7.21
2022-11-21T04:21:12.057Z,7.16
2022-11-21T04:22:14.311Z,7.19
2022-11-21T04:23:16.645Z,7.01
2022-11-21T04:24:18.878Z,6.99
2022-11-21T04:25:21.091Z,7.11
2022-11-21T04:26:23.397Z,7.00
2022-11-21T04:27:25.805Z,6.94
2022-11-21T04:28:28.090Z,7.04
2022-11-21T04:29:30.307Z,6.86
2022-11-21T04:30:33.916Z,6.87
2022-11-21T04:31:36.554Z,6.84
2022-11-21T04:32:38.802Z,6.83
2022-11-21T04:33:41.010Z,6.84
2022-11-21T04:34:43.206Z,6.91
2022-11-21T04:35:46.818Z,6.99
2022-11-21T04:36:49.140Z,7.15
2022-11-21T04:37:51.730Z,6.97
2022-11-21T04:38:54.256Z,6.84
2022-11-21T04:39:56.466Z,6.84
2022-11-21T04:40:58.681Z,6.85
2022-11-21T04:42:00.890Z,6.84
2022-11-21T04:43:03.828Z,6.84
2022-11-21T04:44:06.075Z,6.82
2022-11-21T04:45:09.077Z,6.73
2022-11-21T04:46:11.333Z,6.86
2022-11-21T04:47:13.617Z,6.83
2022-11-21T04:48:15.853Z,6.75
2022-11-21T04:49:18.114Z,6.83
2022-11-21T04:50:20.635Z,6.97
2022-11-21T04:51:23.020Z,7.04
2022-11-21T04:52:25.195Z,6.88
2022-11-21T04:53:27.438Z,6.90
2022-11-21T04:54:30.170Z,6.84
2022-11-21T04:55:32.949Z,6.73
2022-11-21T04:56:35.184Z,6.73
2022-11-21T04:57:37.582Z,6.73
2022-11-21T04:58:39.875Z,6.78
2022-11-21T04:59:42.056Z,6.85
2022-11-21T05:00:44.293Z,6.93
2022-11-21T05:01:46.546Z,7.06
2022-11-21T05:02:48.888Z,7.01
2022-11-21T05:03:52.574Z,6.98
2022-11-21T05:04:54.844Z,6.86
2022-11-21T05:05:57.026Z,7.03
2022-11-21T05:06:59.329Z,7.03
2022-11-21T05:08:01.550Z,7.00
2022-11-21T05:09:03.794Z,7.01
2022-11-21T05:10:07.284Z,6.83
2022-11-21T05:11:27.838Z,6.84
2022-11-21T05:12:48.639Z,6.77
2022-11-21T05:13:53.604Z,6.75
2022-11-21T05:14:56.552Z,6.68
2022-11-21T05:15:58.914Z,6.60
2022-11-21T05:17:01.097Z,6.67
2022-11-21T05:18:03.544Z,6.86
2022-11-21T05:19:05.799Z,6.64
2022-11-21T05:20:08.839Z,6.61
2022-11-21T05:21:11.110Z,6.66
2022-11-21T05:22:13.880Z,6.81
2022-11-21T05:23:16.246Z,6.88
2022-11-21T05:24:18.485Z,6.79
2022-11-21T05:25:21.058Z,6.60
2022-11-21T05:26:23.313Z,6.79
2022-11-21T05:27:25.588Z,6.79
2022-11-21T05:28:27.812Z,6.68
2022-11-21T05:29:30.233Z,6.50
2022-11-21T05:30:32.551Z,6.68
2022-11-21T05:31:34.787Z,6.59
2022-11-21T05:32:36.991Z,6.61
2022-11-21T05:33:39.204Z,6.34
2022-11-21T05:34:41.459Z,6.38
2022-11-21T05:35:44.000Z,6.35
2022-11-21T05:36:46.394Z,6.31
2022-11-21T05:37:48.696Z,6.40
2022-11-21T05:38:51.047Z,6.17
2022-11-21T05:39:53.455Z,6.11
2022-11-21T05:40:55.679Z,6.17
2022-11-21T05:42:02.666Z,6.04
2022-11-21T05:43:23.908Z,6.10
2022-11-21T05:44:26.495Z,6.04
2022-11-21T05:45:29.110Z,6.17
2022-11-21T05:46:31.331Z,6.13
2022-11-21T05:47:33.543Z,6.09
2022-11-21T05:48:36.877Z,6.10
2022-11-21T05:49:39.114Z,6.13
2022-11-21T05:50:41.313Z,6.13
2022-11-21T05:51:43.593Z,6.09
2022-11-21T05:52:45.817Z,6.08
2022-11-21T05:53:48.528Z,5.99
2022-11-21T05:54:50.759Z,5.82
2022-11-21T05:55:52.966Z,5.85
2022-11-21T05:56:58.246Z,5.88
2022-11-21T05:58:00.952Z,6.02
2022-11-21T05:59:03.171Z,6.07
2022-11-21T06:00:06.001Z,6.03
2022-11-21T06:01:09.954Z,6.03
2022-11-21T06:02:30.576Z,6.04
2022-11-21T06:03:36.665Z,6.19
2022-11-21T06:04:38.904Z,6.17
2022-11-21T06:05:41.362Z,6.16
2022-11-21T06:06:43.566Z,6.27
2022-11-21T06:07:45.913Z,6.34
2022-11-21T06:08:48.204Z,6.34
2022-11-21T06:09:50.510Z,6.27
2022-11-21T06:10:52.751Z,6.20
2022-11-21T06:11:54.922Z,6.26
2022-11-21T06:13:00.929Z,6.35
2022-11-21T06:14:03.234Z,6.28
2022-11-21T06:15:05.726Z,6.24
2022-11-21T06:16:13.267Z,6.18
2022-11-21T06:17:15.561Z,6.35
2022-11-21T06:18:17.884Z,6.24
2022-11-21T06:19:20.159Z,6.38
2022-11-21T06:20:22.622Z,6.28
2022-11-21T06:21:28.122Z,6.37
2022-11-21T06:22:30.499Z,6.23
2022-11-21T06:23:32.799Z,6.25
2022-11-21T06:24:35.009Z,6.37
2022-11-21T06:25:37.248Z,6.30
2022-11-21T06:26:39.525Z,6.34
2022-11-21T06:27:41.749Z,6.41
2022-11-21T06:28:45.402Z,6.37
2022-11-21T06:29:47.615Z,6.40
2022-11-21T06:30:51.811Z,6.42
2022-11-21T06:31:55.963Z,6.56
2022-11-21T06:32:58.807Z,6.44
2022-11-21T06:34:01.028Z,6.47
2022-11-21T06:35:03.758Z,6.48
2022-11-21T06:36:11.598Z,6.60
2022-11-21T06:37:13.786Z,6.56
2022-11-21T06:38:18.657Z,6.59
2022-11-21T06:39:20.887Z,6.76
2022-11-21T06:40:23.074Z,6.62
2022-11-21T06:41:26.793Z,6.55
2022-11-21T06:42:29.040Z,6.77
2022-11-21T06:43:31.294Z,6.63
2022-11-21T06:44:33.535Z,6.47
2022-11-21T06:45:35.723Z,6.53
2022-11-21T06:46:37.943Z,6.56
2022-11-21T06:47:40.229Z,6.51
2022-11-21T06:48:43.927Z,6.58
2022-11-21T06:49:46.131Z,6.52
2022-11-21T06:50:48.329Z,6.48
2022-11-21T06:51:50.582Z,6.51
2022-11-21T06:52:52.833Z,6.53
2022-11-21T06:53:57.373Z,6.43
2022-11-21T06:55:00.112Z,6.63
2022-11-21T06:56:02.822Z,6.54
2022-11-21T06:57:05.110Z,6.69
2022-11-21T06:58:07.365Z,6.66
2022-11-21T06:59:09.742Z,6.72
2022-11-21T07:00:12.619Z,6.61
2022-11-21T07:01:14.908Z,6.69
2022-11-21T07:02:17.160Z,6.44
2022-11-21T07:03:19.433Z,6.50
2022-11-21T07:04:21.717Z,6.57
2022-11-21T07:05:24.124Z,6.64
2022-11-21T07:06:27.207Z,6.57
2022-11-21T07:07:29.598Z,6.74
2022-11-21T07:08:33.780Z,6.98
2022-11-21T07:09:36.676Z,6.72
2022-11-21T07:10:38.977Z,6.63
2022-11-21T07:11:41.231Z,6.76
2022-11-21T07:13:02.445Z,6.86
2022-11-21T07:14:08.960Z,6.81
2022-11-21T07:15:12.027Z,6.78
2022-11-21T07:16:14.312Z,6.91
2022-11-21T07:17:16.660Z,6.79
2022-11-21T07:18:22.951Z,6.97
2022-11-21T07:19:25.439Z,6.92
2022-11-21T07:20:28.139Z,6.73
2022-11-21T07:21:30.317Z,6.79
2022-11-21T07:22:32.488Z,6.99
2022-11-21T07:23:35.376Z,6.85
2022-11-21T07:24:37.681Z,6.85
2022-11-21T07:25:40.082Z,6.68
2022-11-21T07:26:42.331Z,6.63
2022-11-21T07:27:44.694Z,6.86
2022-11-21T07:28:47.031Z,6.94
2022-11-21T07:29:49.286Z,7.01
2022-11-21T07:30:51.542Z,6.94
2022-11-21T07:31:54.671Z,6.81
2022-11-21T07:32:58.390Z,6.82
2022-11-21T07:34:00.672Z,6.90
2022-11-21T07:35:02.922Z,6.72
2022-11-21T07:36:05.414Z,6.79
2022-11-21T07:37:07.655Z,6.85
2022-11-21T07:38:09.971Z,6.78
2022-11-21T07:39:12.267Z,6.76
2022-11-21T07:40:14.657Z,6.66
2022-11-21T07:41:16.917Z,6.93
2022-11-21T07:42:19.161Z,6.90
2022-11-21T07:43:21.459Z,7.02
2022-11-21T07:44:23.692Z,7.21
2022-11-21T07:45:25.955Z,7.19
2022-11-21T07:46:28.215Z,7.09
2022-11-21T07:47:30.499Z,7.32
2022-11-21T07:48:32.820Z,7.30
2022-11-21T07:49:35.071Z,7.18
2022-11-21T07:50:37.343Z,7.48
2022-11-21T07:51:39.697Z,7.58
2022-11-21T07:52:41.994Z,7.37
2022-11-21T07:53:44.263Z,7.35
2022-11-21T07:54:46.510Z,7.34
2022-11-21T07:55:48.759Z,7.72
2022-11-21T07:56:51.113Z,7.99
2022-11-21T07:58:03.391Z,8.06
2022-11-21T07:59:05.681Z,8.24
2022-11-21T08:00:08.737Z,7.85
2022-11-21T08:01:11.013Z,7.81
2022-11-21T08:02:31.358Z,7.71
2022-11-21T08:03:34.404Z,7.74
2022-11-21T08:04:36.668Z,7.62
2022-11-21T08:05:42.826Z,7.85
2022-11-21T08:06:45.055Z,7.82
2022-11-21T08:07:47.578Z,8.25
2022-11-21T08:08:54.086Z,8.13
2022-11-21T08:09:56.368Z,8.34
2022-11-21T08:10:58.674Z,8.31
2022-11-21T08:12:00.915Z,8.62
2022-11-21T08:13:03.112Z,8.92
2022-11-21T08:14:05.463Z,9.05
2022-11-21T08:15:08.730Z,9.39
2022-11-21T08:16:10.996Z,9.33
2022-11-21T08:17:14.218Z,9.18
2022-11-21T08:18:20.833Z,9.51
2022-11-21T08:19:23.052Z,9.29
2022-11-21T08:20:25.292Z,9.63
2022-11-21T08:21:27.913Z,9.91
2022-11-21T08:22:30.188Z,10.11
2022-11-21T08:23:32.858Z,9.93
2022-11-21T08:24:35.114Z,9.90
2022-11-21T08:25:39.138Z,10.14
2022-11-21T08:26:41.520Z,10.16
2022-11-21T08:27:43.837Z,10.56
2022-11-21T08:28:46.092Z,10.30
2022-11-21T08:29:48.502Z,10.11
2022-11-21T08:30:50.816Z,10.19
2022-11-21T08:31:53.068Z,10.06
2022-11-21T08:32:57.082Z,10.38
2022-11-21T08:34:01.144Z,10.07
2022-11-21T08:35:03.859Z,9.94
2022-11-21T08:36:07.197Z,10.36
2022-11-21T08:37:09.438Z,10.61
2022-11-21T08:38:12.415Z,10.49
2022-11-21T08:39:14.702Z,10.50
2022-11-21T08:40:16.993Z,10.55
2022-11-21T08:41:37.959Z,10.80
2022-11-21T08:42:40.192Z,10.35
2022-11-21T08:43:42.512Z,10.08
2022-11-21T08:44:44.761Z,10.38
2022-11-21T08:45:46.981Z,10.70
2022-11-21T08:46:49.228Z,10.77
2022-11-21T08:47:51.952Z,11.22
2022-11-21T08:48:55.137Z,10.83
2022-11-21T08:49:57.321Z,10.62
2022-11-21T08:51:00.140Z,10.71
2022-11-21T08:52:02.315Z,10.39
2022-11-21T08:53:04.537Z,10.48
2022-11-21T08:54:07.560Z,10.51
2022-11-21T08:55:09.922Z,10.40
2022-11-21T08:56:12.247Z,10.34
2022-11-21T08:57:14.790Z,10.73
2022-11-21T08:58:17.242Z,10.69
2022-11-21T08:59:19.499Z,10.45
2022-11-21T09:00:21.886Z,10.55
2022-11-21T09:01:24.219Z,11.06
2022-11-21T09:02:26.551Z,11.31
2022-11-21T09:03:31.299Z,11.39
2022-11-21T09:04:33.957Z,10.93
2022-11-21T09:05:36.378Z,10.61
2022-11-21T09:06:38.808Z,10.93
2022-11-21T09:07:41.481Z,10.73
2022-11-21T09:08:43.846Z,10.37
2022-11-21T09:09:46.058Z,10.08
2022-11-21T09:10:48.393Z,9.59
2022-11-21T09:11:50.601Z,9.70
2022-11-21T09:12:53.169Z,9.91
2022-11-21T09:14:13.754Z,9.42
2022-11-21T09:15:34.949Z,9.76
2022-11-21T09:17:00.780Z,9.88
2022-11-21T09:18:04.792Z,10.64
2022-11-21T09:19:07.094Z,10.83
2022-11-21T09:20:09.877Z,11.50
2022-11-21T09:21:16.284Z,11.13
2022-11-21T09:22:18.517Z,11.43
2022-11-21T09:23:20.748Z,11.12
2022-11-21T09:24:22.980Z,10.70
2022-11-21T09:25:25.270Z,11.20
2022-11-21T09:26:27.447Z,10.98
2022-11-21T09:27:30.769Z,10.67
2022-11-21T09:28:33.400Z,10.82
2022-11-21T09:29:35.650Z,10.89
2022-11-21T09:30:38.660Z,10.72
2022-11-21T09:31:41.853Z,10.97
2022-11-21T09:32:44.067Z,10.79
2022-11-21T09:33:48.657Z,10.73
2022-11-21T09:34:53.411Z,10.76
2022-11-21T09:35:58.419Z,10.45
2022-11-21T09:37:00.684Z,10.12
2022-11-21T09:38:03.755Z,10.56
2022-11-21T09:39:06.095Z,10.95
2022-11-21T09:40:16.562Z,10.90
2022-11-21T09:41:57.656Z,9.71
2022-11-21T09:43:38.200Z,9.79
2022-11-21T09:44:56.728Z,9.16
2022-11-21T09:46:10.931Z,9.31
2022-11-21T09:47:30.434Z,9.27
2022-11-21T09:48:58.265Z,9.37
2022-11-21T09:50:04.080Z,9.34
2022-11-21T09:51:13.883Z,9.59
2022-11-21T09:52:20.860Z,9.80
2022-11-21T09:53:31.312Z,10.24
2022-11-21T09:54:39.463Z,9.77
2022-11-21T09:55:41.705Z,9.45
2022-11-21T09:56:44.413Z,9.21
2022-11-21T09:57:49.450Z,9.31
2022-11-21T09:59:19.397Z,9.59
2022-11-21T10:00:24.818Z,9.58
2022-11-21T10:01:29.277Z,9.14
2022-11-21T10:02:31.674Z,9.25
2022-11-21T10:03:42.872Z,9.17
2022-11-21T10:04:48.892Z,9.43
2022-11-21T10:06:06.230Z,10.06
2022-11-21T10:07:16.989Z,10.24
2022-11-21T10:08:41.672Z,10.50
2022-11-21T10:09:55.882Z,10.85
2022-11-21T10:11:19.399Z,10.69
2022-11-21T10:12:44.059Z,10.57
2022-11-21T10:13:57.540Z,10.14
2022-11-21T10:15:17.704Z,10.00
2022-11-21T10:16:46.355Z,9.68
2022-11-21T10:18:22.364Z,9.37
2022-11-21T10:20:08.432Z,9.21
2022-11-21T10:21:32.039Z,9.30
2022-11-21T10:22:45.006Z,9.29
2022-11-21T10:24:20.953Z,8.82
2022-11-21T10:25:27.447Z,8.80
2022-11-21T10:26:41.995Z,8.85
2022-11-21T10:27:52.227Z,8.53
2022-11-21T10:29:23.861Z,8.67
2022-11-21T10:30:26.245Z,8.63
2022-11-21T10:31:34.760Z,8.78
2022-11-21T10:32:43.225Z,8.47
2022-11-21T10:33:45.853Z,8.62
2022-11-21T10:34:51.209Z,8.24
2022-11-21T10:36:01.166Z,8.19
2022-11-21T10:37:29.348Z,8.64
2022-11-21T10:38:38.920Z,8.80
2022-11-21T10:39:45.326Z,8.99
2022-11-21T10:40:53.678Z,9.24
2022-11-21T10:42:24.218Z,9.70
2022-11-21T10:43:58.364Z,9.85
2022-11-21T10:45:16.724Z,9.90
2022-11-21T10:46:19.040Z,10.23
2022-11-21T10:47:27.674Z,10.45
2022-11-21T10:48:30.224Z,10.39
2022-11-21T10:49:34.384Z,10.25
2022-11-21T10:50:50.159Z,10.01
2022-11-21T10:52:10.890Z,10.25
2022-11-21T10:53:40.816Z,10.22
2022-11-21T10:55:04.657Z,10.20
2022-11-21T10:56:12.557Z,10.08
2022-11-21T10:57:18.499Z,10.30
2022-11-21T10:58:35.797Z,10.50
2022-11-21T10:59:38.199Z,10.40
2022-11-21T11:00:57.084Z,10.29
2022-11-21T11:02:19.156Z,9.99
2022-11-21T11:03:21.994Z,10.30
2022-11-21T11:04:28.218Z,10.50
2022-11-21T11:05:37.291Z,10.34
2022-11-21T11:06:41.919Z,10.14
2022-11-21T11:08:02.281Z,10.52
2022-11-21T11:09:05.285Z,10.44
2022-11-21T11:10:26.790Z,10.32
2022-11-21T11:11:30.087Z,10.32
2022-11-21T11:12:51.160Z,10.24
2022-11-21T11:13:59.891Z,10.43
2022-11-21T11:15:02.250Z,10.53
2022-11-21T11:16:10.343Z,10.42
2022-11-21T11:17:14.949Z,10.57
2022-11-21T11:18:22.312Z,10.42
2022-11-21T11:19:38.567Z,10.32
2022-11-21T11:20:45.067Z,10.47
2022-11-21T11:21:47.683Z,10.22
2022-11-21T11:22:50.009Z,10.17
2022-11-21T11:23:54.604Z,10.24
2022-11-21T11:25:00.462Z,10.41
2022-11-21T11:26:03.249Z,10.25
2022-11-21T11:27:05.502Z,10.13
2022-11-21T11:28:09.104Z,10.09
2022-11-21T11:29:15.595Z,10.16
2022-11-21T11:30:19.700Z,10.29
2022-11-21T11:31:22.357Z,10.04
2022-11-21T11:32:24.986Z,10.00
2022-11-21T11:33:35.972Z,9.97
2022-11-21T11:34:41.185Z,9.94
2022-11-21T11:35:43.785Z,9.87
2022-11-21T11:36:54.155Z,9.78
2022-11-21T11:38:02.779Z,9.84
2022-11-21T11:39:19.604Z,10.40
2022-11-21T11:40:30.074Z,10.81
2022-11-21T11:42:19.942Z,10.96
2022-11-21T11:43:49.730Z,11.14
2022-11-21T11:45:33.690Z,10.83
2022-11-21T11:47:10.532Z,11.07
2022-11-21T11:48:12.907Z,11.09
2022-11-21T11:49:59.547Z,11.43
2022-11-21T11:51:06.579Z,11.33
2022-11-21T11:52:11.570Z,11.31
2022-11-21T11:53:39.381Z,11.52
2022-11-21T11:54:50.236Z,11.33
2022-11-21T11:56:04.965Z,11.21
2022-11-21T11:57:09.650Z,11.36
2022-11-21T11:58:47.490Z,11.45
2022-11-21T12:00:03.025Z,10.91
2022-11-21T12:01:33.905Z,11.07
2022-11-21T12:02:55.393Z,10.80
2022-11-21T12:04:11.461Z,10.58
2022-11-21T12:05:23.286Z,10.52
2022-11-21T12:06:46.872Z,10.76
2022-11-21T12:09:33.181Z,10.56
2022-11-21T12:11:04.512Z,10.52
2022-11-21T12:12:15.709Z,10.65
2022-11-21T12:13:20.327Z,10.82
2022-11-21T12:14:50.300Z,10.67
2022-11-21T12:16:04.010Z,10.42
2022-11-21T12:17:10.697Z,10.50
2022-11-21T12:18:20.339Z,10.74
2022-11-21T12:19:22.993Z,10.56
2022-11-21T12:20:37.137Z,10.81
2022-11-21T12:21:39.471Z,11.07
2022-11-21T12:22:42.423Z,10.92
2022-11-21T12:23:54.728Z,10.88
2022-11-21T12:24:56.993Z,10.93
2022-11-21T12:26:15.408Z,10.83
2022-11-21T12:27:35.387Z,10.94
2022-11-21T12:29:15.134Z,10.67
2022-11-21T12:30:47.458Z,10.79
2022-11-21T12:32:11.790Z,10.65
2022-11-21T12:33:23.606Z,10.73
2022-11-21T12:34:57.083Z,10.75
2022-11-21T12:36:18.403Z,10.51
2022-11-21T12:37:39.361Z,10.39
2022-11-21T12:39:16.150Z,10.58
2022-11-21T12:40:42.226Z,10.74
2022-11-21T12:42:16.397Z,10.52
2022-11-21T12:43:25.154Z,10.46
2022-11-21T12:45:02.589Z,10.34
2022-11-21T12:46:16.337Z,10.36
2022-11-21T12:48:18.527Z,10.28
2022-11-21T12:50:17.660Z,9.98
2022-11-21T12:51:53.747Z,9.97
2022-11-21T12:53:31.664Z,10.02
2022-11-21T12:54:52.022Z,10.20
2022-11-21T12:56:07.848Z,10.37
2022-11-21T12:57:15.525Z,10.44
2022-11-21T12:58:38.296Z,10.42
2022-11-21T12:59:57.133Z,10.63
2022-11-21T13:01:28.169Z,10.64
2022-11-21T13:02:38.686Z,10.49
2022-11-21T13:03:58.993Z,10.66
2022-11-21T13:06:44.567Z,10.17
2022-11-21T13:07:48.610Z,10.04
2022-11-21T13:08:52.873Z,10.05
2022-11-21T13:09:57.622Z,10.19
2022-11-21T13:11:39.171Z,10.27
2022-11-21T13:13:09.905Z,10.53
2022-11-21T13:14:27.236Z,10.44
2022-11-21T13:15:38.935Z,10.49
2022-11-21T13:16:48.250Z,10.42
2022-11-21T13:18:15.731Z,10.70
2022-11-21T13:19:35.950Z,11.10
2022-11-21T13:20:45.907Z,11.37
2022-11-21T13:21:51.312Z,11.38
2022-11-21T13:22:59.475Z,11.38
2022-11-21T13:24:01.774Z,11.31
2022-11-21T13:25:32.408Z,11.36
2022-11-21T13:26:37.328Z,11.21
2022-11-21T13:27:44.662Z,11.61
2022-11-21T13:28:47.178Z,11.82
2022-11-21T13:30:19.072Z,12.11
2022-11-21T13:31:32.991Z,12.12
2022-11-21T13:32:42.073Z,12.13
2022-11-21T13:33:48.231Z,11.71
2022-11-21T13:34:50.606Z,11.34
2022-11-21T13:35:52.839Z,11.33
2022-11-21T13:36:55.011Z,11.45
2022-11-21T13:38:08.436Z,11.49
2022-11-21T13:39:26.383Z,11.77
2022-11-21T13:40:31.548Z,11.73
2022-11-21T13:41:51.976Z,11.56
2022-11-21T13:44:41.451Z,11.58
2022-11-21T13:45:47.167Z,11.46
2022-11-21T13:47:23.028Z,11.20
2022-11-21T13:48:31.390Z,11.56
2022-11-21T13:49:52.266Z,11.69
2022-11-21T13:51:31.635Z,11.33
2022-11-21T13:52:58.485Z,11.37
2022-11-21T13:54:56.178Z,11.31
2022-11-21T13:56:04.625Z,11.21
2022-11-21T13:57:18.546Z,11.32
2022-11-21T13:58:57.769Z,11.43
2022-11-21T14:00:05.102Z,11.59
2022-11-21T14:01:32.287Z,11.75
2022-11-21T14:03:08.805Z,11.45
2022-11-21T14:04:33.725Z,11.28
2022-11-21T14:05:59.177Z,11.10
2022-11-21T14:07:24.686Z,11.23
2022-11-21T14:08:29.171Z,11.27
2022-11-21T14:09:36.963Z,10.91
2022-11-21T14:10:39.326Z,10.94
2022-11-21T14:11:48.645Z,11.01
2022-11-21T14:12:53.106Z,10.92
2022-11-21T14:13:55.664Z,10.95
2022-11-21T14:15:00.875Z,10.81
2022-11-21T14:16:21.929Z,10.84
2022-11-21T14:17:42.214Z,11.01
2022-11-21T14:18:47.202Z,10.86
2022-11-21T14:19:52.086Z,10.81
2022-11-21T14:20:57.365Z,10.57
2022-11-21T14:22:00.823Z,10.44
2022-11-21T14:23:06.415Z,10.39
2022-11-21T14:24:16.020Z,10.33
2022-11-21T14:25:21.151Z,10.37
2022-11-21T14:26:25.323Z,10.27
2022-11-21T14:27:30.720Z,10.37
2022-11-21T14:28:35.793Z,10.46
2022-11-21T14:29:40.087Z,10.39
2022-11-21T14:30:44.054Z,10.43
2022-11-21T14:31:47.626Z,10.43
2022-11-21T14:32:54.381Z,10.40
2022-11-21T14:33:58.358Z,10.43
2022-11-21T14:35:22.730Z,10.37
2022-11-21T14:36:30.053Z,10.46
2022-11-21T14:37:38.878Z,10.43
2022-11-21T14:38:50.957Z,10.46
2022-11-21T14:40:01.020Z,10.33
2022-11-21T14:41:27.885Z,10.18
2022-11-21T14:42:36.803Z,10.16
2022-11-21T14:43:38.988Z,10.10
2022-11-21T14:44:41.629Z,10.04
2022-11-21T14:45:49.597Z,10.03
2022-11-21T14:47:05.671Z,9.96
2022-11-21T14:48:12.460Z,10.04
2022-11-21T14:49:15.452Z,9.95
2022-11-21T14:50:33.521Z,9.85